Burnet's Hourly Summary for Sunday, July 8, 2018
Hour Temp
(f)
RH
(%)
Solar Rad.
(MJ/m2)
Rainfall
(in)
Wind
(mph)
7/8/2018 12:00 AM 73 93 0 0 0.54
7/8/2018 1:00 AM 71 95 0 0 0.45
7/8/2018 2:00 AM 70 96 0 0 0.68
7/8/2018 3:00 AM 70 96 0 0 0.66
7/8/2018 4:00 AM 70 96 0 0 0.59
7/8/2018 5:00 AM 69 96 0 0 0.67
7/8/2018 6:00 AM 69 96 0 0 1
7/8/2018 7:00 AM 70 96 0.02 0 0.81
7/8/2018 8:00 AM 74 96 0.33 0 1.53
7/8/2018 9:00 AM 79 82 0.98 0 2.44
7/8/2018 10:00 AM 81 72 1.63 0 2.77
7/8/2018 11:00 AM 84 61 1.87 0 3.32
7/8/2018 12:00 PM 84 56 2.69 0 4.53
7/8/2018 1:00 PM 86 56 2.92 0 4.22
7/8/2018 2:00 PM 88 51 3.23 0 5.31
7/8/2018 3:00 PM 88 46 2.11 0 4.36
7/8/2018 4:00 PM 88 54 2.08 0 7.96
7/8/2018 5:00 PM 85 56 0.49 0 4.6
7/8/2018 6:00 PM 84 56 0.74 0 4.62
7/8/2018 7:00 PM 83 58 0.93 0 6.91
7/8/2018 8:00 PM 80 63 0.13 0 2.98
7/8/2018 9:00 PM 80 69 0.03 0 2.72
7/8/2018 10:00 PM 77 80 0 0 3.59
7/8/2018 11:00 PM 76 84 0 0 1.85
Data Summary 78 75 20.18 0.00 2.88